EZY68GD EDDH-EGCC
Flight info
| Callsign | EZY68GD |
|---|---|
| Flight time | 1h 26m |
| Altitude | 38000 |
| Route | WSN5C WSN N125 ITMIZ DCT MIMVA DCT OTBED |
| Aircraft | A320/M-SDE3FGHIRWY/LB1 |
Departure
| Time | 2026-04-20 18:38 |
|---|---|
| Airport | Hamburg Helmut Schmidt Airport (EDDH) |
Arrival
| Time | 2026-04-20 20:04 |
|---|---|
| Airport | Manchester Airport (EGCC) |
| Time | Latitude | Longitude | Altitude | Speed | Heading |
|---|---|---|---|---|---|
| 2026-04-20 18:11 | 53.62942 | 10.00288 | 49 ft | 0 kts | 123° |
| 2026-04-20 18:25 | 53.62954 | 10.00260 | 48 ft | 4 kts | 130° |
| 2026-04-20 18:26 | 53.62973 | 10.00228 | 46 ft | 4 kts | 144° |
| 2026-04-20 18:26 | 53.62996 | 10.00207 | 47 ft | 4 kts | 170° |
| 2026-04-20 18:26 | 53.63018 | 10.00209 | 47 ft | 1 kts | 212° |
| 2026-04-20 18:26 | 53.63019 | 10.00210 | 46 ft | 0 kts | 212° |
| 2026-04-20 18:29 | 53.63012 | 10.00203 | 48 ft | 5 kts | 212° |
| 2026-04-20 18:29 | 53.62982 | 10.00171 | 48 ft | 5 kts | 212° |
| 2026-04-20 18:29 | 53.62935 | 10.00119 | 48 ft | 8 kts | 213° |
| 2026-04-20 18:29 | 53.62890 | 10.00070 | 48 ft | 7 kts | 213° |
| 2026-04-20 18:30 | 53.62854 | 10.00020 | 48 ft | 6 kts | 223° |
| 2026-04-20 18:30 | 53.62823 | 9.99978 | 48 ft | 2 kts | 212° |
| 2026-04-20 18:30 | 53.62810 | 9.99967 | 47 ft | 0 kts | 209° |
| 2026-04-20 18:32 | 53.62799 | 9.99956 | 47 ft | 3 kts | 208° |
| 2026-04-20 18:32 | 53.62777 | 9.99936 | 44 ft | 7 kts | 208° |
| 2026-04-20 18:32 | 53.62727 | 9.99891 | 46 ft | 8 kts | 208° |
| 2026-04-20 18:32 | 53.62684 | 9.99850 | 46 ft | 7 kts | 210° |
| 2026-04-20 18:33 | 53.62649 | 9.99799 | 45 ft | 8 kts | 236° |
| 2026-04-20 18:33 | 53.62633 | 9.99714 | 47 ft | 8 kts | 258° |
| 2026-04-20 18:33 | 53.62623 | 9.99623 | 47 ft | 9 kts | 259° |
| 2026-04-20 18:33 | 53.62611 | 9.99521 | 47 ft | 9 kts | 258° |
| 2026-04-20 18:34 | 53.62598 | 9.99412 | 47 ft | 12 kts | 259° |
| 2026-04-20 18:34 | 53.62584 | 9.99283 | 47 ft | 11 kts | 259° |
| 2026-04-20 18:34 | 53.62570 | 9.99163 | 47 ft | 10 kts | 258° |
| 2026-04-20 18:34 | 53.62558 | 9.99053 | 47 ft | 9 kts | 259° |
| 2026-04-20 18:35 | 53.62545 | 9.98950 | 45 ft | 9 kts | 258° |
| 2026-04-20 18:35 | 53.62533 | 9.98833 | 45 ft | 16 kts | 259° |
| 2026-04-20 18:35 | 53.62512 | 9.98649 | 47 ft | 15 kts | 259° |
| 2026-04-20 18:35 | 53.62492 | 9.98478 | 45 ft | 14 kts | 259° |
| 2026-04-20 18:36 | 53.62475 | 9.98321 | 47 ft | 13 kts | 259° |
| 2026-04-20 18:36 | 53.62458 | 9.98174 | 47 ft | 12 kts | 259° |
| 2026-04-20 18:36 | 53.62443 | 9.98039 | 47 ft | 11 kts | 259° |
| 2026-04-20 18:36 | 53.62428 | 9.97912 | 46 ft | 12 kts | 260° |
| 2026-04-20 18:37 | 53.62458 | 9.97795 | 41 ft | 12 kts | 315° |
| 2026-04-20 18:37 | 53.62497 | 9.97742 | 41 ft | 5 kts | 349° |
| 2026-04-20 18:37 | 53.62517 | 9.97771 | 41 ft | 4 kts | 51° |
| 2026-04-20 18:37 | 53.62520 | 9.97777 | 39 ft | 4 kts | 51° |
| 2026-04-20 18:38 | 53.62716 | 9.98172 | 43 ft | 81 kts | 50° |
| 2026-04-20 18:38 | 53.63213 | 9.99176 | 58 ft | 138 kts | 50° |
| 2026-04-20 18:38 | 53.63838 | 10.00441 | 734 ft | 139 kts | 50° |
| 2026-04-20 18:38 | 53.64463 | 10.01702 | 1471 ft | 145 kts | 52° |
| 2026-04-20 18:39 | 53.65148 | 10.03086 | 1864 ft | 164 kts | 54° |
| 2026-04-20 18:39 | 53.65908 | 10.04636 | 2297 ft | 181 kts | 53° |
| 2026-04-20 18:39 | 53.66730 | 10.06326 | 2905 ft | 189 kts | 54° |
| 2026-04-20 18:39 | 53.67582 | 10.08074 | 3562 ft | 195 kts | 53° |
| 2026-04-20 18:40 | 53.68520 | 10.09751 | 4230 ft | 204 kts | 38° |
| 2026-04-20 18:40 | 53.69880 | 10.10555 | 5084 ft | 216 kts | 7° |
| 2026-04-20 18:40 | 53.71383 | 10.09943 | 5765 ft | 240 kts | 333° |
| 2026-04-20 18:40 | 53.72589 | 10.07748 | 6182 ft | 273 kts | 306° |
| 2026-04-20 18:41 | 53.73537 | 10.04894 | 6867 ft | 287 kts | 300° |
| 2026-04-20 18:41 | 53.74392 | 10.01778 | 7753 ft | 294 kts | 290° |
| 2026-04-20 18:41 | 53.74744 | 9.98353 | 8654 ft | 301 kts | 271° |
| 2026-04-20 18:41 | 53.74506 | 9.94805 | 9570 ft | 306 kts | 255° |
| 2026-04-20 18:42 | 53.73754 | 9.91418 | 10356 ft | 315 kts | 245° |
| 2026-04-20 18:42 | 53.72866 | 9.87927 | 10674 ft | 339 kts | 245° |
| 2026-04-20 18:42 | 53.71885 | 9.84186 | 11210 ft | 352 kts | 245° |
| 2026-04-20 18:42 | 53.70863 | 9.80377 | 11979 ft | 358 kts | 245° |
| 2026-04-20 18:43 | 53.69817 | 9.76522 | 12784 ft | 362 kts | 245° |
| 2026-04-20 18:43 | 53.68771 | 9.72691 | 13578 ft | 366 kts | 245° |
| 2026-04-20 18:43 | 53.67704 | 9.68755 | 14329 ft | 370 kts | 245° |
| 2026-04-20 18:43 | 53.66624 | 9.64761 | 15027 ft | 374 kts | 245° |
| 2026-04-20 18:44 | 53.65557 | 9.60810 | 15724 ft | 377 kts | 245° |
| 2026-04-20 18:44 | 53.64459 | 9.56761 | 16434 ft | 380 kts | 245° |
| 2026-04-20 18:44 | 53.63351 | 9.52684 | 17132 ft | 384 kts | 245° |
| 2026-04-20 18:44 | 53.62230 | 9.48569 | 17830 ft | 387 kts | 245° |
| 2026-04-20 18:45 | 53.61114 | 9.44471 | 18510 ft | 391 kts | 245° |
| 2026-04-20 18:45 | 53.59971 | 9.40278 | 19094 ft | 394 kts | 245° |
| 2026-04-20 18:45 | 53.58813 | 9.36049 | 19686 ft | 397 kts | 245° |
| 2026-04-20 18:45 | 53.57663 | 9.31856 | 20256 ft | 400 kts | 245° |
| 2026-04-20 18:46 | 53.56490 | 9.27580 | 20815 ft | 404 kts | 245° |
| 2026-04-20 18:46 | 53.55304 | 9.23263 | 21376 ft | 407 kts | 245° |
| 2026-04-20 18:46 | 53.54107 | 9.18915 | 21916 ft | 410 kts | 245° |
| 2026-04-20 18:46 | 53.52915 | 9.14595 | 22478 ft | 413 kts | 245° |
| 2026-04-20 18:47 | 53.51694 | 9.10185 | 23019 ft | 416 kts | 245° |
| 2026-04-20 18:47 | 53.50465 | 9.05757 | 23561 ft | 419 kts | 245° |
| 2026-04-20 18:47 | 53.49242 | 9.01355 | 24034 ft | 422 kts | 245° |
| 2026-04-20 18:47 | 53.47997 | 8.96869 | 24479 ft | 424 kts | 245° |
| 2026-04-20 18:48 | 53.46743 | 8.92362 | 24918 ft | 426 kts | 245° |
| 2026-04-20 18:48 | 53.45492 | 8.87882 | 25348 ft | 429 kts | 245° |
| 2026-04-20 18:48 | 53.44217 | 8.83323 | 25781 ft | 431 kts | 245° |
| 2026-04-20 18:48 | 53.42936 | 8.78749 | 26203 ft | 433 kts | 245° |
| 2026-04-20 18:49 | 53.41649 | 8.74163 | 26601 ft | 436 kts | 245° |
| 2026-04-20 18:49 | 53.40349 | 8.69546 | 27016 ft | 438 kts | 245° |
| 2026-04-20 18:49 | 53.39058 | 8.64965 | 27415 ft | 440 kts | 245° |
| 2026-04-20 18:49 | 53.37743 | 8.60303 | 27824 ft | 443 kts | 245° |
| 2026-04-20 18:50 | 53.36417 | 8.55617 | 28220 ft | 445 kts | 245° |
| 2026-04-20 18:50 | 53.35082 | 8.50920 | 28626 ft | 447 kts | 245° |
| 2026-04-20 18:50 | 53.33737 | 8.46197 | 29024 ft | 450 kts | 245° |
| 2026-04-20 18:50 | 53.32401 | 8.41507 | 29388 ft | 452 kts | 244° |
| 2026-04-20 18:51 | 53.31040 | 8.36736 | 29763 ft | 454 kts | 244° |
| 2026-04-20 18:51 | 53.29668 | 8.31940 | 30118 ft | 456 kts | 244° |
| 2026-04-20 18:51 | 53.28307 | 8.27191 | 30430 ft | 459 kts | 244° |
| 2026-04-20 18:51 | 53.26924 | 8.22380 | 30714 ft | 461 kts | 244° |
| 2026-04-20 18:52 | 53.25531 | 8.17544 | 31001 ft | 463 kts | 244° |
| 2026-04-20 18:52 | 53.24125 | 8.12675 | 31286 ft | 465 kts | 244° |
| 2026-04-20 18:52 | 53.22710 | 8.07791 | 31555 ft | 467 kts | 244° |
| 2026-04-20 18:52 | 53.21312 | 8.02968 | 31907 ft | 466 kts | 244° |
| 2026-04-20 18:53 | 53.19897 | 7.98094 | 32309 ft | 465 kts | 244° |
| 2026-04-20 18:53 | 53.18484 | 7.93233 | 32697 ft | 465 kts | 244° |
| 2026-04-20 18:53 | 53.17088 | 7.88437 | 33082 ft | 464 kts | 244° |
| 2026-04-20 18:53 | 53.15678 | 7.83597 | 33472 ft | 463 kts | 244° |
| 2026-04-20 18:54 | 53.14264 | 7.78755 | 33855 ft | 462 kts | 244° |
| 2026-04-20 18:54 | 53.12852 | 7.73938 | 34235 ft | 462 kts | 244° |
| 2026-04-20 18:54 | 53.11652 | 7.69032 | 34539 ft | 461 kts | 253° |
| 2026-04-20 18:54 | 53.10914 | 7.63837 | 34848 ft | 461 kts | 262° |
| 2026-04-20 18:55 | 53.10662 | 7.58521 | 35147 ft | 459 kts | 271° |
| 2026-04-20 18:55 | 53.10749 | 7.53260 | 35449 ft | 458 kts | 272° |
| 2026-04-20 18:55 | 53.10842 | 7.47955 | 35762 ft | 457 kts | 272° |
| 2026-04-20 18:55 | 53.10925 | 7.42649 | 36069 ft | 456 kts | 272° |
| 2026-04-20 18:56 | 53.11000 | 7.37378 | 36369 ft | 455 kts | 272° |
| 2026-04-20 18:56 | 53.11072 | 7.32175 | 36664 ft | 454 kts | 272° |
| 2026-04-20 18:56 | 53.11143 | 7.26914 | 36957 ft | 452 kts | 272° |
| 2026-04-20 18:56 | 53.11211 | 7.21727 | 37242 ft | 451 kts | 272° |
| 2026-04-20 18:57 | 53.11281 | 7.16503 | 37500 ft | 451 kts | 272° |
| 2026-04-20 18:57 | 53.11350 | 7.11273 | 37779 ft | 450 kts | 272° |
| 2026-04-20 18:57 | 53.11415 | 7.06116 | 38029 ft | 449 kts | 272° |
| 2026-04-20 18:57 | 53.11479 | 7.00895 | 38212 ft | 450 kts | 272° |
| 2026-04-20 18:58 | 53.11597 | 6.90483 | 38245 ft | 448 kts | 272° |
| 2026-04-20 18:58 | 53.11702 | 6.80155 | 38245 ft | 448 kts | 272° |
| 2026-04-20 18:59 | 53.11804 | 6.69830 | 38245 ft | 447 kts | 272° |
| 2026-04-20 18:59 | 53.11894 | 6.59457 | 38246 ft | 447 kts | 272° |
| 2026-04-20 19:00 | 53.11979 | 6.49097 | 38244 ft | 447 kts | 272° |
| 2026-04-20 19:00 | 53.12052 | 6.38765 | 38247 ft | 447 kts | 272° |
| 2026-04-20 19:01 | 53.12115 | 6.28445 | 38249 ft | 447 kts | 272° |
| 2026-04-20 19:01 | 53.12168 | 6.18054 | 38249 ft | 447 kts | 272° |
| 2026-04-20 19:02 | 53.12212 | 6.07738 | 38271 ft | 448 kts | 271° |
| 2026-04-20 19:02 | 53.12250 | 5.97343 | 38285 ft | 448 kts | 272° |
| 2026-04-20 19:03 | 53.12272 | 5.87014 | 38280 ft | 448 kts | 271° |
| 2026-04-20 19:03 | 53.12292 | 5.76632 | 38285 ft | 447 kts | 271° |
| 2026-04-20 19:04 | 53.12304 | 5.66312 | 38283 ft | 448 kts | 271° |
| 2026-04-20 19:04 | 53.12307 | 5.55906 | 38284 ft | 448 kts | 271° |
| 2026-04-20 19:05 | 53.12300 | 5.45587 | 38288 ft | 448 kts | 271° |
| 2026-04-20 19:05 | 53.12282 | 5.35192 | 38289 ft | 448 kts | 271° |
| 2026-04-20 19:06 | 53.12256 | 5.24859 | 38292 ft | 447 kts | 271° |
| 2026-04-20 19:06 | 53.12221 | 5.14561 | 38291 ft | 447 kts | 271° |
| 2026-04-20 19:07 | 53.12177 | 5.04203 | 38292 ft | 446 kts | 271° |
| 2026-04-20 19:07 | 53.12120 | 4.93918 | 38293 ft | 446 kts | 271° |
| 2026-04-20 19:08 | 53.12023 | 4.78422 | 38292 ft | 445 kts | 271° |
| 2026-04-20 19:09 | 53.11953 | 4.68183 | 38295 ft | 445 kts | 271° |
| 2026-04-20 19:09 | 53.11868 | 4.57846 | 38295 ft | 445 kts | 271° |
| 2026-04-20 19:10 | 53.11773 | 4.47584 | 38298 ft | 445 kts | 271° |
| 2026-04-20 19:10 | 53.11670 | 4.37258 | 38302 ft | 445 kts | 271° |
| 2026-04-20 19:11 | 53.11561 | 4.27009 | 38307 ft | 445 kts | 271° |
| 2026-04-20 19:11 | 53.11444 | 4.16687 | 38310 ft | 445 kts | 271° |
| 2026-04-20 19:12 | 53.11311 | 4.06437 | 38307 ft | 445 kts | 270° |
| 2026-04-20 19:12 | 53.11175 | 3.96109 | 38310 ft | 445 kts | 271° |
| 2026-04-20 19:13 | 53.11030 | 3.85870 | 38315 ft | 444 kts | 270° |
| 2026-04-20 19:13 | 53.10878 | 3.75569 | 38315 ft | 444 kts | 270° |
| 2026-04-20 19:14 | 53.10713 | 3.65346 | 38316 ft | 444 kts | 270° |
| 2026-04-20 19:14 | 53.10541 | 3.55121 | 38312 ft | 443 kts | 270° |
| 2026-04-20 19:15 | 53.10363 | 3.44846 | 38306 ft | 443 kts | 269° |
| 2026-04-20 19:15 | 53.10170 | 3.34651 | 38300 ft | 442 kts | 269° |
| 2026-04-20 19:16 | 53.10507 | 3.24454 | 38301 ft | 440 kts | 278° |
| 2026-04-20 19:16 | 53.11223 | 3.14378 | 38297 ft | 440 kts | 278° |
| 2026-04-20 19:17 | 53.11924 | 3.04221 | 38305 ft | 440 kts | 278° |
| 2026-04-20 19:17 | 53.12612 | 2.94128 | 38312 ft | 440 kts | 278° |
| 2026-04-20 19:18 | 53.13304 | 2.84021 | 38313 ft | 441 kts | 277° |
| 2026-04-20 19:18 | 53.13980 | 2.73873 | 38316 ft | 441 kts | 277° |
| 2026-04-20 19:19 | 53.14650 | 2.63754 | 38307 ft | 441 kts | 278° |
| 2026-04-20 19:19 | 53.15318 | 2.53577 | 38314 ft | 441 kts | 277° |
| 2026-04-20 19:20 | 53.15959 | 2.43453 | 38316 ft | 441 kts | 277° |
| 2026-04-20 19:20 | 53.16599 | 2.33259 | 38325 ft | 441 kts | 277° |
| 2026-04-20 19:21 | 53.17232 | 2.23134 | 38327 ft | 441 kts | 277° |
| 2026-04-20 19:21 | 53.17862 | 2.12937 | 38327 ft | 442 kts | 277° |
| 2026-04-20 19:22 | 53.18478 | 2.02784 | 38332 ft | 442 kts | 276° |
| 2026-04-20 19:22 | 53.19077 | 1.92625 | 38339 ft | 442 kts | 277° |
| 2026-04-20 19:23 | 53.19678 | 1.82406 | 38337 ft | 442 kts | 277° |
| 2026-04-20 19:23 | 53.20278 | 1.72200 | 38331 ft | 442 kts | 276° |
| 2026-04-20 19:24 | 53.20860 | 1.62043 | 38337 ft | 441 kts | 276° |
| 2026-04-20 19:24 | 53.21437 | 1.51808 | 38342 ft | 442 kts | 276° |
| 2026-04-20 19:25 | 53.21995 | 1.41634 | 38333 ft | 442 kts | 276° |
| 2026-04-20 19:25 | 53.22552 | 1.31409 | 38344 ft | 442 kts | 276° |
| 2026-04-20 19:26 | 53.23101 | 1.21250 | 38344 ft | 442 kts | 276° |
| 2026-04-20 19:26 | 53.23645 | 1.10984 | 38348 ft | 442 kts | 276° |
| 2026-04-20 19:27 | 53.24175 | 1.00794 | 38349 ft | 442 kts | 276° |
| 2026-04-20 19:27 | 53.24695 | 0.90592 | 38347 ft | 443 kts | 276° |
| 2026-04-20 19:28 | 53.25211 | 0.80334 | 38118 ft | 442 kts | 276° |
| 2026-04-20 19:28 | 53.25462 | 0.75268 | 37857 ft | 441 kts | 276° |
| 2026-04-20 19:28 | 53.25714 | 0.70133 | 37594 ft | 441 kts | 276° |
| 2026-04-20 19:28 | 53.25963 | 0.65019 | 37333 ft | 441 kts | 276° |
| 2026-04-20 19:29 | 53.26210 | 0.59954 | 36681 ft | 442 kts | 276° |
| 2026-04-20 19:29 | 53.26460 | 0.54809 | 35879 ft | 445 kts | 276° |
| 2026-04-20 19:29 | 53.26709 | 0.49604 | 35022 ft | 449 kts | 275° |
| 2026-04-20 19:29 | 53.26952 | 0.44388 | 34176 ft | 452 kts | 275° |
| 2026-04-20 19:30 | 53.27189 | 0.39196 | 33484 ft | 449 kts | 275° |
| 2026-04-20 19:30 | 53.27423 | 0.34006 | 32908 ft | 443 kts | 275° |
| 2026-04-20 19:30 | 53.27650 | 0.28948 | 32309 ft | 439 kts | 275° |
| 2026-04-20 19:30 | 53.27876 | 0.23896 | 31725 ft | 434 kts | 275° |
| 2026-04-20 19:31 | 53.28099 | 0.18884 | 31142 ft | 429 kts | 275° |
| 2026-04-20 19:31 | 53.28319 | 0.13923 | 30569 ft | 424 kts | 275° |
| 2026-04-20 19:31 | 53.28537 | 0.09015 | 29935 ft | 420 kts | 275° |
| 2026-04-20 19:31 | 53.28954 | 0.04290 | 29393 ft | 412 kts | 284° |
| 2026-04-20 19:32 | 53.29826 | -0.00217 | 28914 ft | 404 kts | 294° |
| 2026-04-20 19:32 | 53.31034 | -0.04430 | 28484 ft | 397 kts | 296° |
| 2026-04-20 19:32 | 53.32233 | -0.08495 | 28042 ft | 392 kts | 296° |
| 2026-04-20 19:32 | 53.33298 | -0.12134 | 27656 ft | 390 kts | 296° |
| 2026-04-20 19:33 | 53.34487 | -0.16215 | 27218 ft | 387 kts | 296° |
| 2026-04-20 19:33 | 53.35663 | -0.20262 | 26797 ft | 385 kts | 296° |
| 2026-04-20 19:33 | 53.36816 | -0.24236 | 26367 ft | 382 kts | 296° |
| 2026-04-20 19:33 | 53.37977 | -0.28240 | 25944 ft | 380 kts | 296° |
| 2026-04-20 19:34 | 53.39130 | -0.32218 | 25518 ft | 377 kts | 296° |
| 2026-04-20 19:34 | 53.40276 | -0.36177 | 25097 ft | 375 kts | 296° |
| 2026-04-20 19:34 | 53.41409 | -0.40102 | 24676 ft | 373 kts | 296° |
| 2026-04-20 19:34 | 53.42521 | -0.43960 | 24263 ft | 370 kts | 296° |
| 2026-04-20 19:35 | 53.43642 | -0.47860 | 23833 ft | 368 kts | 296° |
| 2026-04-20 19:35 | 53.44377 | -0.50421 | 23524 ft | 366 kts | 296° |
| 2026-04-20 19:35 | 53.45845 | -0.55529 | 22987 ft | 364 kts | 296° |
| 2026-04-20 19:35 | 53.46574 | -0.58069 | 22709 ft | 362 kts | 296° |
| 2026-04-20 19:36 | 53.47666 | -0.61881 | 22298 ft | 360 kts | 296° |
| 2026-04-20 19:36 | 53.48749 | -0.65677 | 21896 ft | 359 kts | 296° |
| 2026-04-20 19:36 | 53.49824 | -0.69454 | 21494 ft | 357 kts | 296° |
| 2026-04-20 19:36 | 53.50896 | -0.73219 | 21096 ft | 355 kts | 296° |
| 2026-04-20 19:37 | 53.51949 | -0.76926 | 20699 ft | 354 kts | 296° |
| 2026-04-20 19:37 | 53.53007 | -0.80660 | 20302 ft | 353 kts | 296° |
| 2026-04-20 19:37 | 53.54063 | -0.84386 | 19906 ft | 351 kts | 296° |
| 2026-04-20 19:37 | 53.55105 | -0.88068 | 19511 ft | 351 kts | 296° |
| 2026-04-20 19:38 | 53.56152 | -0.91780 | 19123 ft | 350 kts | 296° |
| 2026-04-20 19:38 | 53.57195 | -0.95479 | 18728 ft | 349 kts | 296° |
| 2026-04-20 19:38 | 53.58234 | -0.99183 | 18298 ft | 348 kts | 296° |
| 2026-04-20 19:38 | 53.59267 | -1.02866 | 17918 ft | 346 kts | 296° |
| 2026-04-20 19:39 | 53.60285 | -1.06490 | 17528 ft | 345 kts | 296° |
| 2026-04-20 19:39 | 53.61085 | -1.10310 | 17191 ft | 344 kts | 284° |
| 2026-04-20 19:39 | 53.61619 | -1.14265 | 16990 ft | 345 kts | 284° |
| 2026-04-20 19:39 | 53.62149 | -1.18174 | 16761 ft | 345 kts | 284° |
| 2026-04-20 19:40 | 53.62689 | -1.22118 | 16530 ft | 344 kts | 284° |
| 2026-04-20 19:40 | 53.63230 | -1.26050 | 16295 ft | 343 kts | 284° |
| 2026-04-20 19:40 | 53.63760 | -1.29909 | 16071 ft | 342 kts | 284° |
| 2026-04-20 19:40 | 53.64294 | -1.33812 | 15827 ft | 341 kts | 284° |
| 2026-04-20 19:41 | 53.64826 | -1.37722 | 15600 ft | 340 kts | 284° |
| 2026-04-20 19:41 | 53.65350 | -1.41612 | 15372 ft | 340 kts | 283° |
| 2026-04-20 19:41 | 53.65869 | -1.45505 | 15135 ft | 339 kts | 284° |
| 2026-04-20 19:41 | 53.66387 | -1.49383 | 14909 ft | 338 kts | 284° |
| 2026-04-20 19:42 | 53.66896 | -1.53204 | 14681 ft | 337 kts | 284° |
| 2026-04-20 19:42 | 53.67412 | -1.57066 | 14449 ft | 337 kts | 283° |
| 2026-04-20 19:42 | 53.67925 | -1.60915 | 14228 ft | 336 kts | 284° |
| 2026-04-20 19:42 | 53.68434 | -1.64768 | 13975 ft | 335 kts | 283° |
| 2026-04-20 19:43 | 53.68769 | -1.67315 | 13827 ft | 335 kts | 283° |
| 2026-04-20 19:43 | 53.69439 | -1.72396 | 13523 ft | 333 kts | 283° |
| 2026-04-20 19:43 | 53.69942 | -1.76207 | 13297 ft | 332 kts | 284° |
| 2026-04-20 19:43 | 53.70445 | -1.80011 | 13081 ft | 330 kts | 284° |
| 2026-04-20 19:44 | 53.70943 | -1.83801 | 12847 ft | 329 kts | 284° |
| 2026-04-20 19:44 | 53.71436 | -1.87567 | 12625 ft | 328 kts | 283° |
| 2026-04-20 19:44 | 53.71924 | -1.91329 | 12415 ft | 327 kts | 283° |
| 2026-04-20 19:44 | 53.72406 | -1.95071 | 12183 ft | 325 kts | 284° |
| 2026-04-20 19:45 | 53.72882 | -1.98758 | 11968 ft | 324 kts | 284° |
| 2026-04-20 19:45 | 53.73361 | -2.02475 | 11752 ft | 320 kts | 284° |
| 2026-04-20 19:45 | 53.73827 | -2.06095 | 11620 ft | 309 kts | 284° |
| 2026-04-20 19:45 | 53.74243 | -2.09595 | 11420 ft | 301 kts | 278° |
| 2026-04-20 19:46 | 53.74272 | -2.13108 | 11298 ft | 299 kts | 267° |
| 2026-04-20 19:46 | 53.74133 | -2.16605 | 11117 ft | 298 kts | 267° |
| 2026-04-20 19:46 | 53.73996 | -2.20092 | 10914 ft | 296 kts | 267° |
| 2026-04-20 19:46 | 53.73859 | -2.23571 | 10711 ft | 295 kts | 267° |
| 2026-04-20 19:47 | 53.73723 | -2.27047 | 10505 ft | 295 kts | 267° |
| 2026-04-20 19:47 | 53.73589 | -2.30457 | 10371 ft | 294 kts | 267° |
| 2026-04-20 19:47 | 53.73450 | -2.33899 | 10353 ft | 293 kts | 267° |
| 2026-04-20 19:47 | 53.73311 | -2.37338 | 10356 ft | 293 kts | 267° |
| 2026-04-20 19:48 | 53.73169 | -2.40775 | 10358 ft | 293 kts | 267° |
| 2026-04-20 19:48 | 53.73028 | -2.44168 | 10356 ft | 293 kts | 266° |
| 2026-04-20 19:48 | 53.72868 | -2.48021 | 10350 ft | 293 kts | 266° |
| 2026-04-20 19:48 | 53.72729 | -2.51404 | 10343 ft | 292 kts | 268° |
| 2026-04-20 19:49 | 53.74040 | -2.57835 | 10341 ft | 286 kts | 317° |
| 2026-04-20 19:49 | 53.75683 | -2.59671 | 10338 ft | 284 kts | 341° |
| 2026-04-20 19:49 | 53.77587 | -2.60214 | 10340 ft | 281 kts | 4° |
| 2026-04-20 19:50 | 53.79460 | -2.59407 | 10340 ft | 279 kts | 28° |
| 2026-04-20 19:50 | 53.80977 | -2.57406 | 10340 ft | 278 kts | 50° |
| 2026-04-20 19:50 | 53.81914 | -2.54569 | 10343 ft | 278 kts | 75° |
| 2026-04-20 19:50 | 53.81975 | -2.51315 | 10348 ft | 278 kts | 102° |
| 2026-04-20 19:51 | 53.81152 | -2.48407 | 10349 ft | 281 kts | 128° |
| 2026-04-20 19:51 | 53.79619 | -2.46340 | 9999 ft | 284 kts | 154° |
| 2026-04-20 19:51 | 53.77695 | -2.45666 | 9614 ft | 284 kts | 182° |
| 2026-04-20 19:51 | 53.75726 | -2.46119 | 9237 ft | 284 kts | 189° |
| 2026-04-20 19:52 | 53.73778 | -2.46746 | 8861 ft | 283 kts | 190° |
| 2026-04-20 19:52 | 53.71864 | -2.47379 | 8494 ft | 282 kts | 190° |
| 2026-04-20 19:52 | 53.69935 | -2.48018 | 8125 ft | 280 kts | 190° |
| 2026-04-20 19:52 | 53.68021 | -2.48650 | 7762 ft | 279 kts | 190° |
| 2026-04-20 19:53 | 53.66144 | -2.49265 | 7418 ft | 277 kts | 190° |
| 2026-04-20 19:53 | 53.64260 | -2.49879 | 7334 ft | 275 kts | 190° |
| 2026-04-20 19:53 | 53.62373 | -2.50491 | 7339 ft | 276 kts | 190° |
| 2026-04-20 19:53 | 53.60488 | -2.51103 | 7341 ft | 276 kts | 190° |
| 2026-04-20 19:54 | 53.58611 | -2.51713 | 7337 ft | 276 kts | 190° |
| 2026-04-20 19:54 | 53.56719 | -2.52325 | 7338 ft | 276 kts | 190° |
| 2026-04-20 19:54 | 53.54823 | -2.52938 | 7335 ft | 277 kts | 190° |
| 2026-04-20 19:54 | 53.52923 | -2.53554 | 7336 ft | 277 kts | 190° |
| 2026-04-20 19:55 | 53.51050 | -2.54161 | 7334 ft | 277 kts | 190° |
| 2026-04-20 19:55 | 53.49151 | -2.54774 | 7333 ft | 277 kts | 190° |
| 2026-04-20 19:55 | 53.47250 | -2.55388 | 7193 ft | 277 kts | 190° |
| 2026-04-20 19:55 | 53.45384 | -2.55988 | 6943 ft | 274 kts | 190° |
| 2026-04-20 19:56 | 53.44136 | -2.56390 | 6775 ft | 274 kts | 190° |
| 2026-04-20 19:56 | 53.41642 | -2.57191 | 6434 ft | 271 kts | 190° |
| 2026-04-20 19:56 | 53.39788 | -2.57788 | 6322 ft | 270 kts | 190° |
| 2026-04-20 19:56 | 53.37941 | -2.58385 | 6328 ft | 271 kts | 190° |
| 2026-04-20 19:57 | 53.36105 | -2.58979 | 6019 ft | 271 kts | 190° |
| 2026-04-20 19:57 | 53.34262 | -2.59585 | 5645 ft | 268 kts | 190° |
| 2026-04-20 19:57 | 53.32434 | -2.60199 | 5329 ft | 265 kts | 190° |
| 2026-04-20 19:57 | 53.30650 | -2.60811 | 5026 ft | 263 kts | 190° |
| 2026-04-20 19:58 | 53.28853 | -2.61437 | 4698 ft | 262 kts | 189° |
| 2026-04-20 19:58 | 53.27671 | -2.61862 | 4486 ft | 261 kts | 190° |
| 2026-04-20 19:58 | 53.25890 | -2.62429 | 4173 ft | 256 kts | 181° |
| 2026-04-20 19:58 | 53.23731 | -2.61386 | 3763 ft | 241 kts | 140° |
| 2026-04-20 19:59 | 53.22748 | -2.59224 | 3450 ft | 231 kts | 109° |
| 2026-04-20 19:59 | 53.22571 | -2.57522 | 3240 ft | 221 kts | 87° |
| 2026-04-20 19:59 | 53.22913 | -2.55085 | 3034 ft | 210 kts | 72° |
| 2026-04-20 19:59 | 53.23402 | -2.52884 | 3009 ft | 196 kts | 71° |
| 2026-04-20 20:00 | 53.24029 | -2.50941 | 3019 ft | 184 kts | 56° |
| 2026-04-20 20:00 | 53.24805 | -2.49276 | 3023 ft | 179 kts | 54° |
| 2026-04-20 20:00 | 53.25580 | -2.47672 | 3010 ft | 176 kts | 53° |
| 2026-04-20 20:00 | 53.26344 | -2.46101 | 2889 ft | 176 kts | 53° |
| 2026-04-20 20:01 | 53.27114 | -2.44520 | 2681 ft | 172 kts | 54° |
| 2026-04-20 20:01 | 53.27859 | -2.42989 | 2464 ft | 167 kts | 54° |
| 2026-04-20 20:01 | 53.28577 | -2.41515 | 2234 ft | 159 kts | 54° |
| 2026-04-20 20:01 | 53.29259 | -2.40112 | 2021 ft | 155 kts | 54° |
| 2026-04-20 20:02 | 53.29936 | -2.38719 | 1800 ft | 153 kts | 54° |
| 2026-04-20 20:02 | 53.30614 | -2.37321 | 1612 ft | 158 kts | 54° |
| 2026-04-20 20:02 | 53.31296 | -2.35916 | 1372 ft | 146 kts | 55° |
| 2026-04-20 20:02 | 53.31892 | -2.34691 | 1176 ft | 132 kts | 54° |
| 2026-04-20 20:03 | 53.32459 | -2.33522 | 976 ft | 128 kts | 53° |
| 2026-04-20 20:03 | 53.33016 | -2.32372 | 801 ft | 127 kts | 53° |
| 2026-04-20 20:03 | 53.33577 | -2.31213 | 637 ft | 128 kts | 53° |
| 2026-04-20 20:03 | 53.34131 | -2.30067 | 466 ft | 128 kts | 52° |
| 2026-04-20 20:04 | 53.34698 | -2.28912 | 291 ft | 127 kts | 52° |
| 2026-04-20 20:04 | 53.35225 | -2.27802 | 242 ft | 106 kts | 53° |
| 2026-04-20 20:04 | 53.35504 | -2.27231 | 255 ft | 20 kts | 51° |
| 2026-04-20 20:04 | 53.35574 | -2.27086 | 257 ft | 16 kts | 51° |
| 2026-04-20 20:05 | 53.35662 | -2.26900 | 260 ft | 33 kts | 52° |
| 2026-04-20 20:05 | 53.35788 | -2.26679 | 265 ft | 16 kts | 4° |
| 2026-04-20 20:05 | 53.35885 | -2.26702 | 258 ft | 10 kts | 351° |
| 2026-04-20 20:05 | 53.35911 | -2.26776 | 256 ft | 8 kts | 250° |
| 2026-04-20 20:06 | 53.35891 | -2.26857 | 255 ft | 7 kts | 232° |
| 2026-04-20 20:06 | 53.35864 | -2.26913 | 255 ft | 0 kts | 231° |
| 2026-04-20 20:07 | 53.35840 | -2.26964 | 255 ft | 10 kts | 237° |
| 2026-04-20 20:07 | 53.35808 | -2.27059 | 255 ft | 9 kts | 240° |
| 2026-04-20 20:08 | 53.35772 | -2.27140 | 255 ft | 8 kts | 230° |
| 2026-04-20 20:08 | 53.35737 | -2.27213 | 255 ft | 8 kts | 232° |
| 2026-04-20 20:08 | 53.35703 | -2.27282 | 255 ft | 8 kts | 231° |
| 2026-04-20 20:08 | 53.35670 | -2.27350 | 255 ft | 8 kts | 231° |
| 2026-04-20 20:09 | 53.35637 | -2.27419 | 254 ft | 7 kts | 231° |
| 2026-04-20 20:09 | 53.35616 | -2.27477 | 256 ft | 4 kts | 256° |
| 2026-04-20 20:09 | 53.35640 | -2.27553 | 256 ft | 9 kts | 318° |
| 2026-04-20 20:09 | 53.35688 | -2.27612 | 256 ft | 8 kts | 329° |
| 2026-04-20 20:10 | 53.35740 | -2.27649 | 255 ft | 8 kts | 340° |
| 2026-04-20 20:10 | 53.35790 | -2.27673 | 255 ft | 7 kts | 9° |
| 2026-04-20 20:10 | 53.35834 | -2.27660 | 255 ft | 5 kts | 359° |
| 2026-04-20 20:10 | 53.35840 | -2.27746 | 255 ft | 19 kts | 282° |
| 2026-04-20 20:11 | 53.35899 | -2.27848 | 255 ft | 10 kts | 355° |
| 2026-04-20 20:11 | 53.35961 | -2.27840 | 255 ft | 8 kts | 6° |
| 2026-04-20 20:11 | 53.36016 | -2.27832 | 255 ft | 7 kts | 358° |
| 2026-04-20 20:11 | 53.36073 | -2.27865 | 255 ft | 9 kts | 324° |
| 2026-04-20 20:12 | 53.36114 | -2.27933 | 255 ft | 8 kts | 314° |
| 2026-04-20 20:12 | 53.36151 | -2.27995 | 255 ft | 7 kts | 315° |
| 2026-04-20 20:12 | 53.36191 | -2.28060 | 255 ft | 8 kts | 315° |
| 2026-04-20 20:13 | 53.36279 | -2.28210 | 255 ft | 11 kts | 314° |
| 2026-04-20 20:13 | 53.36332 | -2.28299 | 255 ft | 10 kts | 315° |
| 2026-04-20 20:13 | 53.36380 | -2.28380 | 255 ft | 9 kts | 314° |
| 2026-04-20 20:13 | 53.36423 | -2.28453 | 255 ft | 9 kts | 315° |
| 2026-04-20 20:14 | 53.36463 | -2.28521 | 255 ft | 8 kts | 315° |
| 2026-04-20 20:14 | 53.36504 | -2.28588 | 255 ft | 10 kts | 314° |
| 2026-04-20 20:14 | 53.36554 | -2.28674 | 255 ft | 10 kts | 313° |
| 2026-04-20 20:14 | 53.36589 | -2.28768 | 255 ft | 9 kts | 321° |
| 2026-04-20 20:15 | 53.36640 | -2.28759 | 255 ft | 7 kts | 38° |
| 2026-04-20 20:15 | 53.36675 | -2.28701 | 255 ft | 7 kts | 45° |
| 2026-04-20 20:15 | 53.36706 | -2.28651 | 255 ft | 6 kts | 44° |
| 2026-04-20 20:15 | 53.36731 | -2.28609 | 255 ft | 5 kts | 45° |
| 2026-04-20 20:16 | 53.36752 | -2.28574 | 255 ft | 4 kts | 45° |
| 2026-04-20 20:16 | 53.36768 | -2.28562 | 255 ft | 2 kts | 352° |
| 2026-04-20 20:16 | 53.36782 | -2.28573 | 255 ft | 3 kts | 326° |
| 2026-04-20 20:16 | 53.36797 | -2.28597 | 255 ft | 3 kts | 316° |
| 2026-04-20 20:17 | 53.36810 | -2.28618 | 255 ft | 2 kts | 314° |
| 2026-04-20 20:17 | 53.36818 | -2.28631 | 255 ft | 0 kts | 314° |